Guthrie County Regional Airport


Codes: KGCT/
Name: Guthrie County Regional Airport
City: Guthrie Center
Country: United States
Elevation: 1230 ft.

Photos at Guthrie County Regional Airport


   Photos courtesy of SpottingLog. You can add your own sightings and photos by signing up for a free trial today.



No photos found.

Weather at Guthrie County Regional Airport


Time (UTC)DescriptionTempratureWindCloud coverageVisibilityPressureHumidity
26-Jun-2024 00:00Light Rain32°C4 mph, NE45%10000m1007hPa63%
26-Jun-2024 03:00Moderate Rain26°C4 mph, N51%10000m1008hPa82%
26-Jun-2024 06:00Heavy Intensity Rain19°C0 mph, W75%3591m1011hPa96%
26-Jun-2024 09:00Light Rain19°C2 mph, E98%10000m1010hPa97%
26-Jun-2024 12:00Broken Clouds19°C11 mph, NE81%10000m1011hPa97%
26-Jun-2024 15:00Few Clouds22°C18 mph, NE18%10000m1013hPa77%
26-Jun-2024 18:00Clear Sky25°C11 mph, NE9%10000m1014hPa60%
26-Jun-2024 21:00Clear Sky26°C11 mph, N0%10000m1014hPa59%
27-Jun-2024 00:00Clear Sky23°C9 mph, NE2%10000m1013hPa73%
27-Jun-2024 03:00Clear Sky18°C7 mph, NE6%10000m1014hPa88%
27-Jun-2024 06:00Few Clouds16°C4 mph, NE21%10000m1016hPa91%
27-Jun-2024 09:00Broken Clouds15°C7 mph, E65%10000m1015hPa94%
27-Jun-2024 12:00Broken Clouds16°C4 mph, E74%10000m1015hPa92%
27-Jun-2024 15:00Overcast Clouds18°C7 mph, SE100%10000m1015hPa88%
27-Jun-2024 18:00Overcast Clouds19°C7 mph, E100%10000m1013hPa86%
27-Jun-2024 21:00Overcast Clouds21°C7 mph, SE100%10000m1011hPa81%
28-Jun-2024 00:00Overcast Clouds22°C9 mph, SE93%10000m1009hPa81%
28-Jun-2024 03:00Scattered Clouds20°C11 mph, S43%10000m1007hPa86%
28-Jun-2024 06:00Broken Clouds20°C11 mph, SE60%10000m1005hPa83%
28-Jun-2024 09:00Light Rain20°C16 mph, S100%9095m1003hPa90%
28-Jun-2024 12:00Light Rain19°C13 mph, S100%10000m1002hPa96%
28-Jun-2024 15:00Light Rain20°C13 mph, S100%3137m1002hPa98%
28-Jun-2024 18:00Light Rain21°C11 mph, S100%10000m1002hPa97%
28-Jun-2024 21:00Overcast Clouds26°C11 mph, W91%10000m1001hPa82%
29-Jun-2024 00:00Light Rain26°C11 mph, NW79%10000m1003hPa83%
29-Jun-2024 03:00Scattered Clouds23°C11 mph, NW25%10000m1007hPa80%
29-Jun-2024 06:00Scattered Clouds19°C9 mph, NW46%10000m1009hPa90%
29-Jun-2024 09:00Few Clouds17°C9 mph, NW24%10000m1011hPa83%
29-Jun-2024 12:00Few Clouds16°C16 mph, NW12%10000m1014hPa74%
29-Jun-2024 15:00Clear Sky16°C20 mph, NW0%10000m1018hPa71%
29-Jun-2024 18:00Clear Sky18°C18 mph, NW0%10000m1021hPa64%
29-Jun-2024 21:00Clear Sky19°C13 mph, N0%10000m1021hPa61%
30-Jun-2024 00:00Clear Sky18°C9 mph, N0%10000m1022hPa71%
30-Jun-2024 03:00Clear Sky13°C7 mph, NE0%10000m1024hPa88%
30-Jun-2024 06:00Clear Sky11°C7 mph, NE0%10000m1027hPa92%
30-Jun-2024 09:00Clear Sky9°C7 mph, NE1%10000m1027hPa95%
30-Jun-2024 12:00Clear Sky10°C4 mph, E1%10000m1028hPa91%
30-Jun-2024 15:00Clear Sky15°C9 mph, E0%10000m1027hPa70%
30-Jun-2024 18:00Clear Sky19°C9 mph, SE2%10000m1026hPa61%
30-Jun-2024 21:00Few Clouds21°C11 mph, SE17%10000m1023hPa61%